createdAt,value
2018-08-19T00:00:45.794Z,21.96
2018-08-19T00:03:14.376Z,21.89
2018-08-19T00:05:43.126Z,21.90
2018-08-19T00:08:11.799Z,21.87
2018-08-19T00:11:11.301Z,21.87
2018-08-19T00:13:40.314Z,21.76
2018-08-19T00:16:10.107Z,21.66
2018-08-19T00:18:38.821Z,21.57
2018-08-19T00:21:10.864Z,21.48
2018-08-19T00:23:44.731Z,21.43
2018-08-19T00:26:15.304Z,21.40
2018-08-19T00:28:43.965Z,21.32
2018-08-19T00:31:12.637Z,21.29
2018-08-19T00:33:41.221Z,21.25
2018-08-19T00:36:26.038Z,21.20
2018-08-19T00:38:55.367Z,21.12
2018-08-19T00:41:24.044Z,21.05
2018-08-19T00:43:52.684Z,20.98
2018-08-19T00:46:33.248Z,20.93
2018-08-19T00:49:02.336Z,20.89
2018-08-19T00:51:30.957Z,20.89
2018-08-19T00:53:59.562Z,20.85
2018-08-19T00:56:28.163Z,20.81
2018-08-19T00:58:56.877Z,20.75
2018-08-19T01:01:34.750Z,20.70
2018-08-19T01:04:06.505Z,20.67
2018-08-19T01:06:40.642Z,20.74
2018-08-19T01:09:10.082Z,20.69
2018-08-19T01:11:40.620Z,20.65
2018-08-19T01:14:12.025Z,20.65
2018-08-19T01:16:40.850Z,20.62
2018-08-19T01:19:10.014Z,20.77
2018-08-19T01:21:38.729Z,20.89
2018-08-19T01:24:08.968Z,20.84
2018-08-19T01:26:38.804Z,20.89
2018-08-19T01:29:08.561Z,20.89
2018-08-19T01:31:37.251Z,20.86
2018-08-19T01:34:08.321Z,20.91
2018-08-19T01:36:37.050Z,21.02
2018-08-19T01:39:10.606Z,21.07
2018-08-19T01:41:40.445Z,21.05
2018-08-19T01:44:10.335Z,21.06
2018-08-19T01:46:54.473Z,21.04
2018-08-19T01:49:23.055Z,21.04
2018-08-19T01:51:51.645Z,21.05
2018-08-19T01:54:22.280Z,21.18
2018-08-19T01:56:55.196Z,21.07
2018-08-19T01:59:25.788Z,21.08
2018-08-19T02:02:01.871Z,21.01
2018-08-19T02:04:31.254Z,20.98
2018-08-19T02:07:00.178Z,20.99
2018-08-19T02:09:28.797Z,20.93
2018-08-19T02:11:58.626Z,20.92
2018-08-19T02:14:27.310Z,20.83
2018-08-19T02:16:56.652Z,20.87
2018-08-19T02:19:25.321Z,20.86
2018-08-19T02:21:54.238Z,20.90
2018-08-19T02:24:22.904Z,20.91
2018-08-19T02:26:51.493Z,20.87
2018-08-19T02:29:32.285Z,20.78
2018-08-19T02:32:02.031Z,20.67
2018-08-19T02:34:32.549Z,20.72
2018-08-19T02:37:07.913Z,20.67
2018-08-19T02:39:39.345Z,20.69
2018-08-19T02:42:25.033Z,20.60
2018-08-19T02:44:55.917Z,20.55
2018-08-19T02:47:24.477Z,20.39
2018-08-19T02:49:53.293Z,20.34
2018-08-19T02:52:27.343Z,20.44
2018-08-19T02:54:57.086Z,20.41
2018-08-19T02:57:26.196Z,20.29
2018-08-19T02:59:54.827Z,20.34
2018-08-19T03:02:29.625Z,20.28
2018-08-19T03:04:59.023Z,20.18
2018-08-19T03:07:28.751Z,20.05
2018-08-19T03:10:09.830Z,19.95
2018-08-19T03:12:38.692Z,19.90
2018-08-19T03:15:08.675Z,19.90
2018-08-19T03:17:37.443Z,19.83
2018-08-19T03:20:08.855Z,19.80
2018-08-19T03:22:37.442Z,19.71
2018-08-19T03:25:06.658Z,19.74
2018-08-19T03:27:35.273Z,19.64
2018-08-19T03:30:05.778Z,19.53
2018-08-19T03:32:34.385Z,19.50
2018-08-19T03:35:13.038Z,19.54
2018-08-19T03:37:41.663Z,19.63
2018-08-19T03:40:10.281Z,19.76
2018-08-19T03:42:38.888Z,19.87
2018-08-19T03:45:12.796Z,19.91
2018-08-19T03:47:41.416Z,19.93
2018-08-19T03:50:15.060Z,20.08
2018-08-19T03:52:44.603Z,20.21
2018-08-19T03:55:18.489Z,20.14
2018-08-19T03:57:47.469Z,20.12
2018-08-19T04:00:17.598Z,20.26
2018-08-19T04:02:46.213Z,20.21
2018-08-19T04:05:14.824Z,20.27
2018-08-19T04:07:43.903Z,20.22
2018-08-19T04:10:12.917Z,20.27
2018-08-19T04:12:41.502Z,20.23
2018-08-19T04:15:10.815Z,20.23
2018-08-19T04:17:39.427Z,20.23
2018-08-19T04:20:08.025Z,20.24
2018-08-19T04:22:36.578Z,20.25
2018-08-19T04:25:05.276Z,20.26
2018-08-19T04:27:33.837Z,20.27
2018-08-19T04:30:02.407Z,20.30
2018-08-19T04:32:32.381Z,20.36
2018-08-19T04:35:02.037Z,20.35
2018-08-19T04:37:30.691Z,20.36
2018-08-19T04:40:00.261Z,20.38
2018-08-19T04:42:28.917Z,20.39
2018-08-19T04:44:57.514Z,20.38
2018-08-19T04:47:32.030Z,20.41
2018-08-19T04:50:00.626Z,20.43
2018-08-19T04:52:29.300Z,20.49
2018-08-19T04:54:58.233Z,20.57
2018-08-19T04:57:26.864Z,20.58
2018-08-19T04:59:55.461Z,20.58
2018-08-19T05:02:24.573Z,20.62
2018-08-19T05:04:53.107Z,20.75
2018-08-19T05:07:21.669Z,20.81
2018-08-19T05:09:50.245Z,20.89
2018-08-19T05:12:18.809Z,20.95
2018-08-19T05:14:47.446Z,20.92
2018-08-19T05:17:16.030Z,20.94
2018-08-19T05:19:44.609Z,20.98
2018-08-19T05:22:14.073Z,20.97
2018-08-19T05:24:43.580Z,21.07
2018-08-19T05:27:12.175Z,21.05
2018-08-19T05:29:40.735Z,21.13
2018-08-19T05:32:19.363Z,21.17
2018-08-19T05:34:55.007Z,21.19
2018-08-19T05:37:23.574Z,21.24
2018-08-19T05:39:57.454Z,21.35
2018-08-19T05:42:26.488Z,21.35
2018-08-19T05:44:55.189Z,21.46
2018-08-19T05:47:23.786Z,21.55
2018-08-19T05:49:52.393Z,21.70
2018-08-19T05:52:22.022Z,21.82
2018-08-19T05:54:55.981Z,21.99
2018-08-19T05:57:24.850Z,22.15
2018-08-19T05:59:54.455Z,22.29
2018-08-19T06:02:31.865Z,22.43
2018-08-19T06:05:01.539Z,22.61
2018-08-19T06:07:30.365Z,22.73
2018-08-19T06:09:59.134Z,22.80
2018-08-19T06:12:27.784Z,22.94
2018-08-19T06:14:58.971Z,23.12
2018-08-19T06:17:27.593Z,23.28
2018-08-19T06:19:56.240Z,23.42
2018-08-19T06:22:32.032Z,23.57
2018-08-19T06:25:00.636Z,23.69
2018-08-19T06:27:35.301Z,23.86
2018-08-19T06:30:04.012Z,24.00
2018-08-19T06:32:33.271Z,24.15
2018-08-19T06:35:02.119Z,24.35
2018-08-19T06:37:30.601Z,24.45
2018-08-19T06:39:59.182Z,24.65
2018-08-19T06:42:27.813Z,24.79
2018-08-19T06:44:56.482Z,24.94
2018-08-19T06:47:25.274Z,25.11
2018-08-19T06:49:56.279Z,25.35
2018-08-19T06:52:25.512Z,25.47
2018-08-19T06:54:54.532Z,25.61
2018-08-19T06:57:23.279Z,25.75
2018-08-19T06:59:51.949Z,25.84
2018-08-19T07:02:22.210Z,25.92
2018-08-19T07:04:50.887Z,26.13
2018-08-19T07:07:20.273Z,26.09
2018-08-19T07:09:48.978Z,26.04
2018-08-19T07:12:19.578Z,26.12
2018-08-19T07:14:53.890Z,26.29
2018-08-19T07:17:23.646Z,26.32
2018-08-19T07:19:52.596Z,26.54
2018-08-19T07:22:22.163Z,26.55
2018-08-19T07:24:51.664Z,26.61
2018-08-19T07:27:20.563Z,26.69
2018-08-19T07:29:50.148Z,26.79
2018-08-19T07:32:18.762Z,26.92
2018-08-19T07:34:47.350Z,26.93
2018-08-19T07:37:16.004Z,27.04
2018-08-19T07:39:49.671Z,27.14
2018-08-19T07:42:18.282Z,27.28
2018-08-19T07:44:46.934Z,27.44
2018-08-19T07:47:16.421Z,27.46
2018-08-19T07:49:45.017Z,27.35
2018-08-19T07:52:13.702Z,27.29
2018-08-19T07:54:42.351Z,27.25
2018-08-19T07:57:16.151Z,27.38
2018-08-19T07:59:47.193Z,27.43
2018-08-19T08:02:15.817Z,27.44
2018-08-19T08:04:45.344Z,27.52
2018-08-19T08:07:14.776Z,27.51
2018-08-19T08:09:43.740Z,27.56
2018-08-19T08:12:13.607Z,27.85
2018-08-19T08:14:47.380Z,28.20
2018-08-19T08:17:16.046Z,28.40
2018-08-19T08:19:51.835Z,28.58
2018-08-19T08:22:20.690Z,28.79
2018-08-19T08:24:49.308Z,29.18
2018-08-19T08:27:17.974Z,29.48
2018-08-19T08:29:46.580Z,29.66
2018-08-19T08:32:15.206Z,29.89
2018-08-19T08:34:43.859Z,29.92
2018-08-19T08:37:13.116Z,30.10
2018-08-19T08:39:41.744Z,30.16
2018-08-19T08:42:10.334Z,29.94
2018-08-19T08:44:39.190Z,29.95
2018-08-19T08:47:10.401Z,29.75
2018-08-19T08:49:44.141Z,30.25
2018-08-19T08:52:17.874Z,30.39
2018-08-19T08:54:53.786Z,30.51
2018-08-19T08:57:23.538Z,30.55
2018-08-19T08:59:52.609Z,30.43
2018-08-19T09:02:21.667Z,30.77
2018-08-19T09:04:51.227Z,30.94
2018-08-19T09:07:20.218Z,30.81
2018-08-19T09:09:49.203Z,30.73
2018-08-19T09:12:19.095Z,30.37
2018-08-19T09:14:47.714Z,30.68
2018-08-19T09:17:16.374Z,30.74
2018-08-19T09:19:45.021Z,30.82
2018-08-19T09:22:14.346Z,30.70
2018-08-19T09:24:42.982Z,30.79
2018-08-19T09:27:11.604Z,30.43
2018-08-19T09:29:40.238Z,30.44
2018-08-19T09:32:08.956Z,30.49
2018-08-19T09:34:37.534Z,30.20
2018-08-19T09:37:06.249Z,30.08
2018-08-19T09:39:35.171Z,29.79
2018-08-19T09:42:12.693Z,29.87
2018-08-19T09:44:42.449Z,29.85
2018-08-19T09:47:11.220Z,29.86
2018-08-19T09:49:39.960Z,29.84
2018-08-19T09:52:08.655Z,29.79
2018-08-19T09:54:38.269Z,30.04
2018-08-19T09:57:08.032Z,30.12
2018-08-19T09:59:36.602Z,30.23
2018-08-19T10:02:06.464Z,30.34
2018-08-19T10:04:35.137Z,30.44
2018-08-19T10:07:09.149Z,30.51
2018-08-19T10:09:37.749Z,30.53
2018-08-19T10:12:06.797Z,30.52
2018-08-19T10:14:35.527Z,30.38
2018-08-19T10:17:04.353Z,30.37
2018-08-19T10:19:33.122Z,30.56
2018-08-19T10:22:01.814Z,30.63
2018-08-19T10:24:32.088Z,30.85
2018-08-19T10:27:00.995Z,30.89
2018-08-19T10:29:29.645Z,30.96
2018-08-19T10:32:00.744Z,30.74
2018-08-19T10:34:32.771Z,30.87
2018-08-19T10:37:02.080Z,30.86
2018-08-19T10:39:30.790Z,30.82
2018-08-19T10:42:19.133Z,31.02
2018-08-19T10:44:51.536Z,31.18
2018-08-19T10:47:21.260Z,31.23
2018-08-19T10:49:56.374Z,31.28
2018-08-19T10:52:29.402Z,31.35
2018-08-19T10:54:59.592Z,31.62
2018-08-19T10:57:28.268Z,31.77
2018-08-19T10:59:59.180Z,32.00
2018-08-19T11:02:27.822Z,32.19
2018-08-19T11:04:58.658Z,32.11
2018-08-19T11:07:27.306Z,32.25
2018-08-19T11:10:20.846Z,32.48
2018-08-19T11:12:52.855Z,32.35
2018-08-19T11:15:45.104Z,32.43
2018-08-19T11:18:36.837Z,32.48
2018-08-19T11:21:08.396Z,32.50
2018-08-19T11:23:38.012Z,32.63
2018-08-19T11:26:07.398Z,32.84
2018-08-19T11:28:41.137Z,32.90
2018-08-19T11:31:18.908Z,32.96
2018-08-19T11:33:47.728Z,32.94
2018-08-19T11:36:16.422Z,33.15
2018-08-19T11:38:50.493Z,33.14
2018-08-19T11:41:19.726Z,33.19
2018-08-19T11:43:49.523Z,33.26
2018-08-19T11:46:18.218Z,33.53
2018-08-19T11:48:50.299Z,33.71
2018-08-19T11:51:19.396Z,33.95
2018-08-19T11:53:48.029Z,33.92
2018-08-19T11:56:16.724Z,33.81
2018-08-19T11:58:47.649Z,33.76
2018-08-19T12:01:20.505Z,33.61
2018-08-19T12:04:01.229Z,33.91
2018-08-19T12:06:31.060Z,34.16
2018-08-19T12:09:01.127Z,34.37
2018-08-19T12:11:31.411Z,34.22
2018-08-19T12:14:02.414Z,34.49
2018-08-19T12:16:31.211Z,34.59
2018-08-19T12:19:06.077Z,34.93
2018-08-19T12:21:39.128Z,34.68
2018-08-19T12:24:17.749Z,34.26
2018-08-19T12:26:46.465Z,34.24
2018-08-19T12:29:15.168Z,34.49
2018-08-19T12:31:43.801Z,34.74
2018-08-19T12:34:12.681Z,35.21
2018-08-19T12:36:41.582Z,35.56
2018-08-19T12:39:10.675Z,35.87
2018-08-19T12:41:44.322Z,36.23
2018-08-19T12:44:12.917Z,36.34
2018-08-19T12:46:48.449Z,36.44
2018-08-19T12:49:17.413Z,36.26
2018-08-19T12:51:46.090Z,36.54
2018-08-19T12:54:14.848Z,36.68
2018-08-19T12:56:43.478Z,36.58
2018-08-19T12:59:12.201Z,36.76
2018-08-19T13:01:41.989Z,36.95
2018-08-19T13:04:10.701Z,37.03
2018-08-19T13:06:44.536Z,37.04
2018-08-19T13:09:13.405Z,37.41
2018-08-19T13:11:42.349Z,37.25
2018-08-19T13:14:11.030Z,37.29
2018-08-19T13:16:39.654Z,37.50
2018-08-19T13:19:08.379Z,37.75
2018-08-19T13:21:37.094Z,37.87
2018-08-19T13:24:05.981Z,38.07
2018-08-19T13:26:34.657Z,38.45
2018-08-19T13:29:03.392Z,38.61
2018-08-19T13:31:34.512Z,38.84
2018-08-19T13:34:04.215Z,38.80
2018-08-19T13:36:33.231Z,38.88
2018-08-19T13:39:01.909Z,39.05
2018-08-19T13:41:30.577Z,38.98
2018-08-19T13:43:59.373Z,38.88
2018-08-19T13:46:28.061Z,38.52
2018-08-19T13:48:56.836Z,38.09
2018-08-19T13:51:25.502Z,38.12
2018-08-19T13:53:54.417Z,38.00
2018-08-19T13:56:23.206Z,38.36
2018-08-19T13:58:51.930Z,38.59
2018-08-19T14:01:20.530Z,38.77
2018-08-19T14:03:49.183Z,39.09
2018-08-19T14:06:17.808Z,39.27
2018-08-19T14:08:46.415Z,39.67
2018-08-19T14:11:15.928Z,39.84
2018-08-19T14:13:44.640Z,39.88
2018-08-19T14:16:13.395Z,40.47
2018-08-19T14:18:42.368Z,41.14
2018-08-19T14:21:11.234Z,41.94
2018-08-19T14:23:39.949Z,42.36
2018-08-19T14:26:08.803Z,42.64
2018-08-19T14:28:37.476Z,42.24
2018-08-19T14:31:06.392Z,42.60
2018-08-19T14:33:35.470Z,43.15
2018-08-19T14:36:04.202Z,43.91
2018-08-19T14:38:32.861Z,44.65
2018-08-19T14:41:02.393Z,45.19
2018-08-19T14:43:31.045Z,45.16
2018-08-19T14:45:59.856Z,45.58
2018-08-19T14:48:28.642Z,45.64
2018-08-19T14:50:57.301Z,45.89
2018-08-19T14:53:25.950Z,45.74
2018-08-19T14:56:06.525Z,45.94
2018-08-19T14:58:35.233Z,46.22
2018-08-19T15:01:03.921Z,46.19
2018-08-19T15:03:32.634Z,46.37
2018-08-19T15:06:08.213Z,46.38
2018-08-19T15:08:36.928Z,46.53
2018-08-19T15:11:05.874Z,46.95
2018-08-19T15:13:34.849Z,46.94
2018-08-19T15:16:03.576Z,47.05
2018-08-19T15:18:32.200Z,47.48
2018-08-19T15:21:00.857Z,47.52
2018-08-19T15:23:29.486Z,47.45
2018-08-19T15:25:58.123Z,47.39
2018-08-19T15:28:27.726Z,48.07
2018-08-19T15:30:57.713Z,48.26
2018-08-19T15:33:26.417Z,47.97
2018-08-19T15:35:55.129Z,47.83
2018-08-19T15:38:23.805Z,47.64
2018-08-19T15:40:52.481Z,47.30
2018-08-19T15:43:21.221Z,47.42
2018-08-19T15:45:49.928Z,47.36
2018-08-19T15:48:18.646Z,47.85
2018-08-19T15:50:47.347Z,48.24
2018-08-19T15:53:18.311Z,48.24
2018-08-19T15:55:47.193Z,48.27
2018-08-19T15:58:15.946Z,48.66
2018-08-19T16:00:44.607Z,48.10
2018-08-19T16:03:13.498Z,47.68
2018-08-19T16:05:42.200Z,48.42
2018-08-19T16:08:10.972Z,47.98
2018-08-19T16:10:39.664Z,47.38
2018-08-19T16:13:10.297Z,47.39
2018-08-19T16:15:39.123Z,47.82
2018-08-19T16:18:08.386Z,48.43
2018-08-19T16:20:37.188Z,47.93
2018-08-19T16:23:05.885Z,47.51
2018-08-19T16:25:34.587Z,47.07
2018-08-19T16:28:03.429Z,47.26
2018-08-19T16:30:32.801Z,47.74
2018-08-19T16:33:01.476Z,47.51
2018-08-19T16:35:30.216Z,46.88
2018-08-19T16:40:32.963Z,45.78
2018-08-19T16:43:01.639Z,45.40
2018-08-19T16:45:30.471Z,45.91
2018-08-19T16:47:59.220Z,45.76
2018-08-19T16:50:28.075Z,45.42
2018-08-19T16:52:56.601Z,45.50
2018-08-19T16:55:25.372Z,45.30
2018-08-19T16:57:58.594Z,44.83
2018-08-19T17:00:27.639Z,44.02
2018-08-19T17:02:56.476Z,42.64
2018-08-19T17:05:36.211Z,41.89
2018-08-19T17:08:05.116Z,42.39
2018-08-19T17:10:33.767Z,42.26
2018-08-19T17:13:02.421Z,42.35
2018-08-19T17:15:31.082Z,42.26
2018-08-19T17:17:59.840Z,41.87
2018-08-19T17:20:28.616Z,41.84
2018-08-19T17:22:57.505Z,41.27
2018-08-19T17:25:26.154Z,40.92
2018-08-19T17:27:54.858Z,40.55
2018-08-19T17:30:23.486Z,39.13
2018-08-19T17:32:57.611Z,38.06
2018-08-19T17:35:26.236Z,37.43
2018-08-19T17:37:54.967Z,37.05
2018-08-19T17:40:23.773Z,36.22
2018-08-19T17:42:52.435Z,35.37
2018-08-19T17:45:21.145Z,34.82
2018-08-19T17:47:49.734Z,34.17
2018-08-19T17:50:24.613Z,33.68
2018-08-19T17:52:53.737Z,33.25
2018-08-19T17:55:22.926Z,32.76
2018-08-19T17:57:51.597Z,32.38
2018-08-19T18:00:20.565Z,32.04
2018-08-19T18:02:49.482Z,31.74
2018-08-19T18:05:18.355Z,31.38
2018-08-19T18:07:51.753Z,31.06
2018-08-19T18:10:25.029Z,30.85
2018-08-19T18:12:53.753Z,30.73
2018-08-19T18:15:24.007Z,30.55
2018-08-19T18:18:04.069Z,30.36
2018-08-19T18:20:36.316Z,30.10
2018-08-19T18:23:07.777Z,29.88
2018-08-19T18:25:36.447Z,29.68
2018-08-19T18:28:11.207Z,29.55
2018-08-19T18:30:39.885Z,29.38
2018-08-19T18:33:08.665Z,29.22
2018-08-19T18:35:37.365Z,29.05
2018-08-19T18:38:10.575Z,28.99
2018-08-19T18:40:39.418Z,28.86
2018-08-19T18:43:08.106Z,28.82
2018-08-19T18:45:36.806Z,28.70
2018-08-19T18:48:06.628Z,28.61
2018-08-19T18:50:35.309Z,28.51
2018-08-19T18:53:04.278Z,28.46
2018-08-19T18:55:33.094Z,28.33
2018-08-19T18:58:01.863Z,28.23
2018-08-19T19:00:30.567Z,28.16
2018-08-19T19:03:00.593Z,28.10
2018-08-19T19:05:40.243Z,28.08
2018-08-19T19:08:14.329Z,28.00
2018-08-19T19:10:55.354Z,27.99
2018-08-19T19:13:25.093Z,27.96
2018-08-19T19:15:53.929Z,27.82
2018-08-19T19:18:22.772Z,27.66
2018-08-19T19:20:56.553Z,27.56
2018-08-19T19:23:30.540Z,27.55
2018-08-19T19:26:00.256Z,27.54
2018-08-19T19:28:29.580Z,27.46
2018-08-19T19:31:03.507Z,27.36
2018-08-19T19:33:32.553Z,27.43
2018-08-19T19:36:09.568Z,27.44
2018-08-19T19:38:59.548Z,27.40
2018-08-19T19:41:31.427Z,27.41
2018-08-19T19:44:05.440Z,27.33
2018-08-19T19:46:34.401Z,27.20
2018-08-19T19:49:03.225Z,27.05
2018-08-19T19:51:31.961Z,26.92
2018-08-19T19:54:00.650Z,26.85
2018-08-19T19:56:29.289Z,26.81
2018-08-19T19:58:58.007Z,26.74
2018-08-19T20:01:26.819Z,26.69
2018-08-19T20:03:56.354Z,26.63
2018-08-19T20:06:25.514Z,26.61
2018-08-19T20:08:54.670Z,26.58
2018-08-19T20:11:27.417Z,26.50
2018-08-19T20:14:00.832Z,26.43
2018-08-19T20:16:29.706Z,26.40
2018-08-19T20:18:58.430Z,26.31
2018-08-19T20:21:28.403Z,26.26
2018-08-19T20:23:58.229Z,26.20
2018-08-19T20:26:29.319Z,26.16
2018-08-19T20:28:59.291Z,26.14
2018-08-19T20:31:28.111Z,26.14
2018-08-19T20:33:58.011Z,26.05
2018-08-19T20:36:26.889Z,25.96
2018-08-19T20:38:55.590Z,25.85
2018-08-19T20:41:24.338Z,25.80
2018-08-19T20:43:52.965Z,25.74
2018-08-19T20:46:21.849Z,25.68
2018-08-19T20:48:50.721Z,25.64
2018-08-19T20:51:19.663Z,25.59
2018-08-19T20:53:48.690Z,25.55
2018-08-19T20:56:17.383Z,25.50
2018-08-19T20:58:46.189Z,25.47
2018-08-19T21:01:20.179Z,25.44
2018-08-19T21:03:48.908Z,25.35
2018-08-19T21:06:17.635Z,25.26
2018-08-19T21:08:46.370Z,25.25
2018-08-19T21:11:15.122Z,25.23
2018-08-19T21:13:43.805Z,25.19
2018-08-19T21:16:12.855Z,25.11
2018-08-19T21:18:41.675Z,25.09
2018-08-19T21:21:11.671Z,25.02
2018-08-19T21:23:40.409Z,24.92
2018-08-19T21:26:09.199Z,24.91
2018-08-19T21:28:37.899Z,24.82
2018-08-19T21:31:06.678Z,24.74
2018-08-19T21:33:35.485Z,24.72
2018-08-19T21:36:04.185Z,24.64
2018-08-19T21:38:33.050Z,24.63
2018-08-19T21:41:01.783Z,24.71
2018-08-19T21:43:31.522Z,24.65
2018-08-19T21:46:01.174Z,24.60
2018-08-19T21:48:29.826Z,24.54
2018-08-19T21:50:58.487Z,24.42
2018-08-19T21:53:27.196Z,24.39
2018-08-19T21:55:55.886Z,24.39
2018-08-19T21:58:25.201Z,24.38
2018-08-19T22:00:55.033Z,24.38
2018-08-19T22:03:28.852Z,24.34
2018-08-19T22:05:57.605Z,24.24
2018-08-19T22:08:26.332Z,24.29
2018-08-19T22:10:55.119Z,24.19
2018-08-19T22:13:23.857Z,24.14
2018-08-19T22:15:53.257Z,24.09
2018-08-19T22:18:23.338Z,24.08
2018-08-19T22:21:06.602Z,24.04
2018-08-19T22:23:40.556Z,24.01
2018-08-19T22:26:10.543Z,24.00
2018-08-19T22:28:39.808Z,23.89
2018-08-19T22:31:20.210Z,23.80
2018-08-19T22:33:52.186Z,23.75
2018-08-19T22:36:21.986Z,23.79
2018-08-19T22:38:52.062Z,23.74
2018-08-19T22:41:24.871Z,23.60
2018-08-19T22:43:54.622Z,23.51
2018-08-19T22:46:23.566Z,23.44
2018-08-19T22:48:52.897Z,23.39
2018-08-19T22:51:21.659Z,23.39
2018-08-19T22:53:53.657Z,23.31
2018-08-19T22:56:22.736Z,23.24
2018-08-19T22:58:51.411Z,23.22
2018-08-19T23:01:20.255Z,23.31
2018-08-19T23:03:50.027Z,23.34
2018-08-19T23:06:18.683Z,23.46
2018-08-19T23:08:47.341Z,23.42
2018-08-19T23:11:15.993Z,23.42
2018-08-19T23:13:55.599Z,23.37
2018-08-19T23:16:24.308Z,23.34
2018-08-19T23:18:52.892Z,23.33
2018-08-19T23:21:21.564Z,23.36
2018-08-19T23:23:50.207Z,23.42
2018-08-19T23:26:18.826Z,23.45
2018-08-19T23:28:47.447Z,23.41
2018-08-19T23:31:16.113Z,23.42
2018-08-19T23:33:44.785Z,23.43
2018-08-19T23:36:13.418Z,23.38
2018-08-19T23:38:42.058Z,23.44
2018-08-19T23:41:10.691Z,23.46
2018-08-19T23:43:39.334Z,23.41
2018-08-19T23:46:08.026Z,23.41
2018-08-19T23:48:41.269Z,23.35
2018-08-19T23:51:12.064Z,23.33
2018-08-19T23:53:40.722Z,23.29
2018-08-19T23:56:09.435Z,23.26
2018-08-19T23:58:38.238Z,23.25
